sensor_id;sensor_type;location;lat;lon;timestamp;P1;durP1;ratioP1;P2;durP2;ratioP2
20381;SDS011;10350;51.280;12.400;2023-07-16T00:00:39;3.17;;;2.97;;
20381;SDS011;10350;51.280;12.400;2023-07-16T00:03:05;3.60;;;3.15;;
20381;SDS011;10350;51.280;12.400;2023-07-16T00:05:31;3.33;;;3.00;;
20381;SDS011;10350;51.280;12.400;2023-07-16T00:07:57;3.30;;;3.00;;
20381;SDS011;10350;51.280;12.400;2023-07-16T00:10:23;3.85;;;3.17;;
20381;SDS011;10350;51.280;12.400;2023-07-16T00:12:49;3.35;;;3.08;;
20381;SDS011;10350;51.280;12.400;2023-07-16T00:15:15;3.33;;;3.03;;
20381;SDS011;10350;51.280;12.400;2023-07-16T00:17:41;3.30;;;3.00;;
20381;SDS011;10350;51.280;12.400;2023-07-16T00:20:07;3.20;;;2.92;;
20381;SDS011;10350;51.280;12.400;2023-07-16T00:22:35;2.88;;;2.67;;
20381;SDS011;10350;51.280;12.400;2023-07-16T00:25:03;2.90;;;2.70;;
20381;SDS011;10350;51.280;12.400;2023-07-16T00:27:29;3.08;;;2.65;;
20381;SDS011;10350;51.280;12.400;2023-07-16T00:29:55;3.90;;;2.45;;
20381;SDS011;10350;51.280;12.400;2023-07-16T00:32:21;2.75;;;2.55;;
20381;SDS011;10350;51.280;12.400;2023-07-16T00:34:48;2.85;;;2.65;;
20381;SDS011;10350;51.280;12.400;2023-07-16T00:37:14;3.33;;;2.60;;
20381;SDS011;10350;51.280;12.400;2023-07-16T00:39:40;2.58;;;2.38;;
20381;SDS011;10350;51.280;12.400;2023-07-16T00:42:06;2.78;;;2.58;;
20381;SDS011;10350;51.280;12.400;2023-07-16T00:44:32;3.17;;;2.58;;
20381;SDS011;10350;51.280;12.400;2023-07-16T00:46:58;3.15;;;2.20;;
20381;SDS011;10350;51.280;12.400;2023-07-16T00:49:24;4.07;;;2.50;;
20381;SDS011;10350;51.280;12.400;2023-07-16T00:51:50;2.58;;;2.40;;
20381;SDS011;10350;51.280;12.400;2023-07-16T00:54:18;2.70;;;2.50;;
20381;SDS011;10350;51.280;12.400;2023-07-16T00:56:44;2.70;;;2.33;;
20381;SDS011;10350;51.280;12.400;2023-07-16T00:59:10;2.95;;;2.65;;
20381;SDS011;10350;51.280;12.400;2023-07-16T01:01:37;2.38;;;2.28;;
20381;SDS011;10350;51.280;12.400;2023-07-16T01:04:04;2.30;;;2.20;;
20381;SDS011;10350;51.280;12.400;2023-07-16T01:06:41;2.45;;;2.25;;
20381;SDS011;10350;51.280;12.400;2023-07-16T01:09:08;3.10;;;2.78;;
20381;SDS011;10350;51.280;12.400;2023-07-16T01:11:36;2.88;;;2.47;;
20381;SDS011;10350;51.280;12.400;2023-07-16T01:14:03;2.60;;;2.40;;
20381;SDS011;10350;51.280;12.400;2023-07-16T01:16:29;2.30;;;2.20;;
20381;SDS011;10350;51.280;12.400;2023-07-16T01:18:55;2.25;;;2.05;;
20381;SDS011;10350;51.280;12.400;2023-07-16T01:21:21;2.38;;;2.22;;
20381;SDS011;10350;51.280;12.400;2023-07-16T01:26:39;3.00;;;2.33;;
20381;SDS011;10350;51.280;12.400;2023-07-16T01:29:33;4.00;;;2.00;;
20381;SDS011;10350;51.280;12.400;2023-07-16T01:32:01;2.53;;;2.42;;
20381;SDS011;10350;51.280;12.400;2023-07-16T01:36:55;2.60;;;2.40;;
20381;SDS011;10350;51.280;12.400;2023-07-16T01:39:21;2.70;;;2.50;;
20381;SDS011;10350;51.280;12.400;2023-07-16T01:41:47;3.90;;;2.35;;
20381;SDS011;10350;51.280;12.400;2023-07-16T01:44:13;2.22;;;2.13;;
20381;SDS011;10350;51.280;12.400;2023-07-16T01:46:39;2.72;;;2.38;;
20381;SDS011;10350;51.280;12.400;2023-07-16T01:49:05;2.42;;;2.22;;
20381;SDS011;10350;51.280;12.400;2023-07-16T01:51:31;2.20;;;2.00;;
20381;SDS011;10350;51.280;12.400;2023-07-16T01:53:57;2.60;;;2.40;;
20381;SDS011;10350;51.280;12.400;2023-07-16T01:56:23;5.00;;;2.60;;
20381;SDS011;10350;51.280;12.400;2023-07-16T01:58:49;2.45;;;2.25;;
20381;SDS011;10350;51.280;12.400;2023-07-16T02:01:15;3.67;;;2.80;;
20381;SDS011;10350;51.280;12.400;2023-07-16T02:03:41;2.75;;;2.55;;
20381;SDS011;10350;51.280;12.400;2023-07-16T02:06:07;2.50;;;2.30;;
20381;SDS011;10350;51.280;12.400;2023-07-16T02:08:33;2.60;;;2.40;;
20381;SDS011;10350;51.280;12.400;2023-07-16T02:10:59;3.53;;;3.22;;
20381;SDS011;10350;51.280;12.400;2023-07-16T02:13:25;5.43;;;4.38;;
20381;SDS011;10350;51.280;12.400;2023-07-16T02:15:51;3.55;;;3.25;;
20381;SDS011;10350;51.280;12.400;2023-07-16T02:18:17;3.13;;;2.83;;
20381;SDS011;10350;51.280;12.400;2023-07-16T02:20:43;3.88;;;2.95;;
20381;SDS011;10350;51.280;12.400;2023-07-16T02:23:10;3.42;;;3.00;;
20381;SDS011;10350;51.280;12.400;2023-07-16T02:25:36;6.22;;;3.35;;
20381;SDS011;10350;51.280;12.400;2023-07-16T02:28:02;3.40;;;2.85;;
20381;SDS011;10350;51.280;12.400;2023-07-16T02:30:28;3.67;;;2.58;;
20381;SDS011;10350;51.280;12.400;2023-07-16T02:32:54;4.28;;;2.92;;
20381;SDS011;10350;51.280;12.400;2023-07-16T02:35:20;3.05;;;2.78;;
20381;SDS011;10350;51.280;12.400;2023-07-16T02:37:46;5.72;;;2.97;;
20381;SDS011;10350;51.280;12.400;2023-07-16T02:40:12;4.15;;;2.33;;
20381;SDS011;10350;51.280;12.400;2023-07-16T02:42:38;3.05;;;2.80;;
20381;SDS011;10350;51.280;12.400;2023-07-16T02:45:04;2.88;;;2.60;;
20381;SDS011;10350;51.280;12.400;2023-07-16T02:47:30;3.92;;;2.70;;
20381;SDS011;10350;51.280;12.400;2023-07-16T02:49:56;4.40;;;2.80;;
20381;SDS011;10350;51.280;12.400;2023-07-16T02:52:22;2.88;;;2.50;;
20381;SDS011;10350;51.280;12.400;2023-07-16T02:54:48;4.82;;;2.53;;
20381;SDS011;10350;51.280;12.400;2023-07-16T02:57:14;4.30;;;3.15;;
20381;SDS011;10350;51.280;12.400;2023-07-16T02:59:40;3.25;;;2.83;;
20381;SDS011;10350;51.280;12.400;2023-07-16T03:02:06;3.08;;;2.80;;
20381;SDS011;10350;51.280;12.400;2023-07-16T03:04:32;6.28;;;3.83;;
20381;SDS011;10350;51.280;12.400;2023-07-16T03:06:58;6.20;;;3.20;;
20381;SDS011;10350;51.280;12.400;2023-07-16T03:09:23;3.45;;;3.00;;
20381;SDS011;10350;51.280;12.400;2023-07-16T03:11:49;4.15;;;2.75;;
20381;SDS011;10350;51.280;12.400;2023-07-16T03:14:15;4.57;;;2.75;;
20381;SDS011;10350;51.280;12.400;2023-07-16T03:16:41;4.82;;;3.45;;
20381;SDS011;10350;51.280;12.400;2023-07-16T03:19:07;5.00;;;3.00;;
20381;SDS011;10350;51.280;12.400;2023-07-16T03:21:33;3.25;;;2.97;;
20381;SDS011;10350;51.280;12.400;2023-07-16T03:23:59;3.67;;;3.25;;
20381;SDS011;10350;51.280;12.400;2023-07-16T03:26:25;3.55;;;3.17;;
20381;SDS011;10350;51.280;12.400;2023-07-16T03:28:51;2.90;;;2.63;;
20381;SDS011;10350;51.280;12.400;2023-07-16T03:31:17;6.45;;;2.90;;
20381;SDS011;10350;51.280;12.400;2023-07-16T03:33:43;3.00;;;2.75;;
20381;SDS011;10350;51.280;12.400;2023-07-16T03:36:09;3.45;;;2.55;;
20381;SDS011;10350;51.280;12.400;2023-07-16T03:38:35;3.58;;;3.28;;
20381;SDS011;10350;51.280;12.400;2023-07-16T03:41:01;3.17;;;2.60;;
20381;SDS011;10350;51.280;12.400;2023-07-16T03:43:27;3.17;;;2.95;;
20381;SDS011;10350;51.280;12.400;2023-07-16T03:45:53;3.08;;;2.80;;
20381;SDS011;10350;51.280;12.400;2023-07-16T03:48:19;2.97;;;2.78;;
20381;SDS011;10350;51.280;12.400;2023-07-16T03:50:46;3.20;;;2.90;;
20381;SDS011;10350;51.280;12.400;2023-07-16T03:53:12;3.97;;;3.58;;
20381;SDS011;10350;51.280;12.400;2023-07-16T03:55:38;3.40;;;3.10;;
20381;SDS011;10350;51.280;12.400;2023-07-16T03:58:04;2.83;;;2.63;;
20381;SDS011;10350;51.280;12.400;2023-07-16T04:00:30;4.05;;;2.80;;
20381;SDS011;10350;51.280;12.400;2023-07-16T04:02:56;2.72;;;2.53;;
20381;SDS011;10350;51.280;12.400;2023-07-16T04:05:22;3.25;;;2.90;;
20381;SDS011;10350;51.280;12.400;2023-07-16T04:07:48;2.90;;;2.70;;
20381;SDS011;10350;51.280;12.400;2023-07-16T04:10:14;6.97;;;3.28;;
20381;SDS011;10350;51.280;12.400;2023-07-16T04:12:40;5.05;;;3.20;;
20381;SDS011;10350;51.280;12.400;2023-07-16T04:15:07;3.42;;;2.80;;
20381;SDS011;10350;51.280;12.400;2023-07-16T04:17:36;3.53;;;2.67;;
20381;SDS011;10350;51.280;12.400;2023-07-16T04:20:02;3.22;;;2.92;;
20381;SDS011;10350;51.280;12.400;2023-07-16T04:22:31;3.55;;;3.25;;
20381;SDS011;10350;51.280;12.400;2023-07-16T04:24:57;4.50;;;3.00;;
20381;SDS011;10350;51.280;12.400;2023-07-16T04:27:23;3.55;;;2.72;;
20381;SDS011;10350;51.280;12.400;2023-07-16T04:29:49;3.05;;;2.75;;
20381;SDS011;10350;51.280;12.400;2023-07-16T04:32:15;3.15;;;2.92;;
20381;SDS011;10350;51.280;12.400;2023-07-16T04:34:41;3.08;;;2.78;;
20381;SDS011;10350;51.280;12.400;2023-07-16T04:37:07;3.42;;;3.13;;
20381;SDS011;10350;51.280;12.400;2023-07-16T04:39:33;3.28;;;3.03;;
20381;SDS011;10350;51.280;12.400;2023-07-16T04:41:59;3.85;;;3.33;;
20381;SDS011;10350;51.280;12.400;2023-07-16T04:44:25;3.35;;;3.15;;
20381;SDS011;10350;51.280;12.400;2023-07-16T04:46:51;3.28;;;3.00;;
20381;SDS011;10350;51.280;12.400;2023-07-16T04:49:17;4.80;;;3.67;;
20381;SDS011;10350;51.280;12.400;2023-07-16T04:51:43;3.25;;;3.03;;
20381;SDS011;10350;51.280;12.400;2023-07-16T04:54:09;2.75;;;2.55;;
20381;SDS011;10350;51.280;12.400;2023-07-16T04:56:35;3.35;;;3.05;;
20381;SDS011;10350;51.280;12.400;2023-07-16T04:59:01;2.53;;;2.42;;
20381;SDS011;10350;51.280;12.400;2023-07-16T05:01:27;3.55;;;2.50;;
20381;SDS011;10350;51.280;12.400;2023-07-16T05:03:53;3.67;;;3.03;;
20381;SDS011;10350;51.280;12.400;2023-07-16T05:06:19;3.53;;;3.22;;
20381;SDS011;10350;51.280;12.400;2023-07-16T05:08:45;3.17;;;2.97;;
20381;SDS011;10350;51.280;12.400;2023-07-16T05:11:12;3.28;;;3.08;;
20381;SDS011;10350;51.280;12.400;2023-07-16T05:13:37;2.72;;;2.53;;
20381;SDS011;10350;51.280;12.400;2023-07-16T05:16:04;3.58;;;2.83;;
20381;SDS011;10350;51.280;12.400;2023-07-16T05:18:30;2.80;;;2.60;;
20381;SDS011;10350;51.280;12.400;2023-07-16T05:20:56;2.95;;;2.75;;
20381;SDS011;10350;51.280;12.400;2023-07-16T05:23:22;3.92;;;3.42;;
20381;SDS011;10350;51.280;12.400;2023-07-16T05:25:48;3.25;;;3.05;;
20381;SDS011;10350;51.280;12.400;2023-07-16T05:28:15;3.03;;;2.85;;
20381;SDS011;10350;51.280;12.400;2023-07-16T05:30:41;3.67;;;3.47;;
20381;SDS011;10350;51.280;12.400;2023-07-16T05:33:07;3.65;;;3.33;;
20381;SDS011;10350;51.280;12.400;2023-07-16T05:35:33;3.55;;;3.35;;
20381;SDS011;10350;51.280;12.400;2023-07-16T05:38:00;3.22;;;3.03;;
20381;SDS011;10350;51.280;12.400;2023-07-16T05:40:26;3.67;;;3.47;;
20381;SDS011;10350;51.280;12.400;2023-07-16T05:42:52;3.10;;;2.95;;
20381;SDS011;10350;51.280;12.400;2023-07-16T05:45:18;4.05;;;3.75;;
20381;SDS011;10350;51.280;12.400;2023-07-16T05:47:44;5.20;;;3.50;;
20381;SDS011;10350;51.280;12.400;2023-07-16T05:50:10;3.22;;;3.10;;
20381;SDS011;10350;51.280;12.400;2023-07-16T05:52:36;3.67;;;3.47;;
20381;SDS011;10350;51.280;12.400;2023-07-16T05:55:02;3.30;;;3.10;;
20381;SDS011;10350;51.280;12.400;2023-07-16T05:57:29;3.17;;;3.03;;
20381;SDS011;10350;51.280;12.400;2023-07-16T05:59:55;4.00;;;3.80;;
20381;SDS011;10350;51.280;12.400;2023-07-16T06:02:20;5.07;;;4.78;;
20381;SDS011;10350;51.280;12.400;2023-07-16T06:04:46;5.57;;;5.28;;
20381;SDS011;10350;51.280;12.400;2023-07-16T06:07:12;5.22;;;5.03;;
20381;SDS011;10350;51.280;12.400;2023-07-16T06:09:39;6.65;;;6.25;;
20381;SDS011;10350;51.280;12.400;2023-07-16T06:12:05;5.88;;;5.50;;
20381;SDS011;10350;51.280;12.400;2023-07-16T06:14:31;5.20;;;4.95;;
20381;SDS011;10350;51.280;12.400;2023-07-16T06:16:57;5.35;;;5.05;;
20381;SDS011;10350;51.280;12.400;2023-07-16T06:19:23;5.18;;;4.88;;
20381;SDS011;10350;51.280;12.400;2023-07-16T06:21:49;5.18;;;4.88;;
20381;SDS011;10350;51.280;12.400;2023-07-16T06:24:15;4.82;;;4.53;;
20381;SDS011;10350;51.280;12.400;2023-07-16T06:26:41;4.60;;;4.40;;
20381;SDS011;10350;51.280;12.400;2023-07-16T06:29:07;4.38;;;4.18;;
20381;SDS011;10350;51.280;12.400;2023-07-16T06:31:33;3.50;;;3.30;;
20381;SDS011;10350;51.280;12.400;2023-07-16T06:33:59;3.45;;;3.20;;
20381;SDS011;10350;51.280;12.400;2023-07-16T06:36:25;3.53;;;3.33;;
20381;SDS011;10350;51.280;12.400;2023-07-16T06:38:51;3.53;;;3.33;;
20381;SDS011;10350;51.280;12.400;2023-07-16T06:41:17;3.58;;;3.38;;
20381;SDS011;10350;51.280;12.400;2023-07-16T06:43:44;3.40;;;3.20;;
20381;SDS011;10350;51.280;12.400;2023-07-16T06:46:10;4.80;;;4.50;;
20381;SDS011;10350;51.280;12.400;2023-07-16T06:48:36;5.07;;;4.68;;
20381;SDS011;10350;51.280;12.400;2023-07-16T06:51:02;4.47;;;4.18;;
20381;SDS011;10350;51.280;12.400;2023-07-16T06:53:28;4.10;;;3.90;;
20381;SDS011;10350;51.280;12.400;2023-07-16T06:55:54;3.83;;;3.63;;
20381;SDS011;10350;51.280;12.400;2023-07-16T06:58:20;3.70;;;3.40;;
20381;SDS011;10350;51.280;12.400;2023-07-16T07:00:49;3.35;;;3.05;;
20381;SDS011;10350;51.280;12.400;2023-07-16T07:03:15;3.50;;;3.28;;
20381;SDS011;10350;51.280;12.400;2023-07-16T07:05:41;3.38;;;3.17;;
20381;SDS011;10350;51.280;12.400;2023-07-16T07:08:07;3.58;;;3.28;;
20381;SDS011;10350;51.280;12.400;2023-07-16T07:10:33;3.45;;;3.20;;
20381;SDS011;10350;51.280;12.400;2023-07-16T07:13:02;3.08;;;2.97;;
20381;SDS011;10350;51.280;12.400;2023-07-16T07:15:28;3.35;;;3.05;;
20381;SDS011;10350;51.280;12.400;2023-07-16T07:17:54;4.00;;;3.17;;
20381;SDS011;10350;51.280;12.400;2023-07-16T07:20:20;2.92;;;2.83;;
20381;SDS011;10350;51.280;12.400;2023-07-16T07:22:46;2.78;;;2.67;;
20381;SDS011;10350;51.280;12.400;2023-07-16T07:25:12;3.05;;;2.95;;
20381;SDS011;10350;51.280;12.400;2023-07-16T07:27:38;3.30;;;3.10;;
20381;SDS011;10350;51.280;12.400;2023-07-16T07:30:04;3.17;;;2.97;;
20381;SDS011;10350;51.280;12.400;2023-07-16T07:32:30;3.40;;;3.10;;
20381;SDS011;10350;51.280;12.400;2023-07-16T07:34:56;3.13;;;2.92;;
20381;SDS011;10350;51.280;12.400;2023-07-16T07:37:22;2.78;;;2.58;;
20381;SDS011;10350;51.280;12.400;2023-07-16T07:39:52;3.08;;;2.88;;
20381;SDS011;10350;51.280;12.400;2023-07-16T07:42:18;3.22;;;3.03;;
20381;SDS011;10350;51.280;12.400;2023-07-16T07:44:44;4.63;;;3.60;;
20381;SDS011;10350;51.280;12.400;2023-07-16T07:47:10;3.58;;;3.30;;
20381;SDS011;10350;51.280;12.400;2023-07-16T07:49:36;2.45;;;2.35;;
20381;SDS011;10350;51.280;12.400;2023-07-16T07:52:02;4.50;;;2.72;;
20381;SDS011;10350;51.280;12.400;2023-07-16T07:54:30;3.00;;;2.80;;
20381;SDS011;10350;51.280;12.400;2023-07-16T07:56:57;2.92;;;2.72;;
20381;SDS011;10350;51.280;12.400;2023-07-16T07:59:27;2.63;;;2.47;;
20381;SDS011;10350;51.280;12.400;2023-07-16T08:01:53;3.83;;;2.55;;
20381;SDS011;10350;51.280;12.400;2023-07-16T08:04:19;2.38;;;2.20;;
20381;SDS011;10350;51.280;12.400;2023-07-16T08:06:45;3.00;;;2.80;;
20381;SDS011;10350;51.280;12.400;2023-07-16T08:09:11;3.30;;;2.30;;
20381;SDS011;10350;51.280;12.400;2023-07-16T08:11:37;2.50;;;2.30;;
20381;SDS011;10350;51.280;12.400;2023-07-16T08:14:03;2.65;;;2.45;;
20381;SDS011;10350;51.280;12.400;2023-07-16T08:16:29;2.38;;;2.28;;
20381;SDS011;10350;51.280;12.400;2023-07-16T08:18:55;2.35;;;2.13;;
20381;SDS011;10350;51.280;12.400;2023-07-16T08:21:21;2.58;;;2.40;;
20381;SDS011;10350;51.280;12.400;2023-07-16T08:23:53;2.53;;;2.42;;
20381;SDS011;10350;51.280;12.400;2023-07-16T08:26:19;3.28;;;3.08;;
20381;SDS011;10350;51.280;12.400;2023-07-16T08:28:45;3.03;;;2.53;;
20381;SDS011;10350;51.280;12.400;2023-07-16T08:31:11;2.60;;;2.40;;
20381;SDS011;10350;51.280;12.400;2023-07-16T08:33:38;3.05;;;2.85;;
20381;SDS011;10350;51.280;12.400;2023-07-16T08:36:04;2.72;;;2.60;;
20381;SDS011;10350;51.280;12.400;2023-07-16T08:38:30;2.67;;;2.45;;
20381;SDS011;10350;51.280;12.400;2023-07-16T08:40:56;2.60;;;2.50;;
20381;SDS011;10350;51.280;12.400;2023-07-16T08:43:22;3.00;;;2.80;;
20381;SDS011;10350;51.280;12.400;2023-07-16T08:45:48;2.40;;;2.30;;
20381;SDS011;10350;51.280;12.400;2023-07-16T08:48:16;2.05;;;1.95;;
20381;SDS011;10350;51.280;12.400;2023-07-16T08:50:48;3.30;;;2.60;;
20381;SDS011;10350;51.280;12.400;2023-07-16T08:53:17;1.90;;;1.80;;
20381;SDS011;10350;51.280;12.400;2023-07-16T08:55:45;2.88;;;2.67;;
20381;SDS011;10350;51.280;12.400;2023-07-16T08:58:20;2.20;;;2.10;;
20381;SDS011;10350;51.280;12.400;2023-07-16T09:00:48;2.42;;;2.30;;
20381;SDS011;10350;51.280;12.400;2023-07-16T09:03:17;2.50;;;2.38;;
20381;SDS011;10350;51.280;12.400;2023-07-16T09:05:44;2.47;;;2.35;;
20381;SDS011;10350;51.280;12.400;2023-07-16T09:08:10;6.07;;;3.33;;
20381;SDS011;10350;51.280;12.400;2023-07-16T09:10:39;3.15;;;2.95;;
20381;SDS011;10350;51.280;12.400;2023-07-16T09:13:05;5.97;;;3.45;;
20381;SDS011;10350;51.280;12.400;2023-07-16T09:15:31;3.35;;;2.67;;
20381;SDS011;10350;51.280;12.400;2023-07-16T09:20:25;1.98;;;1.88;;
20381;SDS011;10350;51.280;12.400;2023-07-16T09:22:56;2.25;;;2.15;;
20381;SDS011;10350;51.280;12.400;2023-07-16T09:25:31;3.65;;;2.47;;
20381;SDS011;10350;51.280;12.400;2023-07-16T09:28:03;3.00;;;2.70;;
20381;SDS011;10350;51.280;12.400;2023-07-16T09:30:32;2.22;;;2.13;;
20381;SDS011;10350;51.280;12.400;2023-07-16T09:33:08;2.40;;;2.28;;
20381;SDS011;10350;51.280;12.400;2023-07-16T09:35:35;2.60;;;2.40;;
20381;SDS011;10350;51.280;12.400;2023-07-16T09:38:02;1.85;;;1.75;;
20381;SDS011;10350;51.280;12.400;2023-07-16T09:40:28;3.13;;;2.10;;
20381;SDS011;10350;51.280;12.400;2023-07-16T09:42:54;2.00;;;1.90;;
20381;SDS011;10350;51.280;12.400;2023-07-16T09:45:21;2.50;;;2.40;;
20381;SDS011;10350;51.280;12.400;2023-07-16T09:47:47;4.28;;;2.40;;
20381;SDS011;10350;51.280;12.400;2023-07-16T09:50:13;2.47;;;2.35;;
20381;SDS011;10350;51.280;12.400;2023-07-16T09:52:39;2.20;;;2.10;;
20381;SDS011;10350;51.280;12.400;2023-07-16T09:55:07;2.20;;;2.00;;
20381;SDS011;10350;51.280;12.400;2023-07-16T09:57:35;2.40;;;2.20;;
20381;SDS011;10350;51.280;12.400;2023-07-16T10:00:03;2.38;;;2.28;;
20381;SDS011;10350;51.280;12.400;2023-07-16T10:02:33;2.20;;;2.10;;
20381;SDS011;10350;51.280;12.400;2023-07-16T10:05:10;1.85;;;1.70;;
20381;SDS011;10350;51.280;12.400;2023-07-16T10:07:36;2.17;;;2.08;;
20381;SDS011;10350;51.280;12.400;2023-07-16T10:10:02;2.20;;;2.00;;
20381;SDS011;10350;51.280;12.400;2023-07-16T10:12:34;3.88;;;2.50;;
20381;SDS011;10350;51.280;12.400;2023-07-16T10:15:05;2.55;;;2.35;;
20381;SDS011;10350;51.280;12.400;2023-07-16T10:17:35;1.85;;;1.75;;
20381;SDS011;10350;51.280;12.400;2023-07-16T10:24:59;2.50;;;2.03;;
20381;SDS011;10350;51.280;12.400;2023-07-16T10:27:29;2.60;;;2.40;;
20381;SDS011;10350;51.280;12.400;2023-07-16T10:29:55;4.15;;;2.30;;
20381;SDS011;10350;51.280;12.400;2023-07-16T10:32:22;2.35;;;2.25;;
20381;SDS011;10350;51.280;12.400;2023-07-16T10:34:51;2.53;;;2.42;;
20381;SDS011;10350;51.280;12.400;2023-07-16T10:37:18;2.53;;;2.33;;
20381;SDS011;10350;51.280;12.400;2023-07-16T10:39:47;2.40;;;2.25;;
20381;SDS011;10350;51.280;12.400;2023-07-16T10:42:14;3.35;;;2.15;;
20381;SDS011;10350;51.280;12.400;2023-07-16T10:44:41;2.95;;;2.75;;
20381;SDS011;10350;51.280;12.400;2023-07-16T10:47:07;2.70;;;2.50;;
20381;SDS011;10350;51.280;12.400;2023-07-16T10:49:33;2.47;;;2.37;;
20381;SDS011;10350;51.280;12.400;2023-07-16T10:52:00;3.05;;;2.85;;
20381;SDS011;10350;51.280;12.400;2023-07-16T10:54:26;2.47;;;2.38;;
20381;SDS011;10350;51.280;12.400;2023-07-16T10:56:52;3.00;;;2.35;;
20381;SDS011;10350;51.280;12.400;2023-07-16T10:59:18;2.47;;;2.38;;
20381;SDS011;10350;51.280;12.400;2023-07-16T11:01:45;2.63;;;2.42;;
20381;SDS011;10350;51.280;12.400;2023-07-16T11:04:11;2.38;;;2.22;;
20381;SDS011;10350;51.280;12.400;2023-07-16T11:06:38;2.60;;;2.40;;
20381;SDS011;10350;51.280;12.400;2023-07-16T11:09:10;3.92;;;2.17;;
20381;SDS011;10350;51.280;12.400;2023-07-16T11:11:36;2.38;;;2.17;;
20381;SDS011;10350;51.280;12.400;2023-07-16T11:14:03;2.30;;;2.20;;
20381;SDS011;10350;51.280;12.400;2023-07-16T11:16:36;2.20;;;2.10;;
20381;SDS011;10350;51.280;12.400;2023-07-16T11:19:06;3.17;;;2.78;;
20381;SDS011;10350;51.280;12.400;2023-07-16T11:21:36;2.67;;;2.50;;
20381;SDS011;10350;51.280;12.400;2023-07-16T11:24:35;2.75;;;2.55;;
20381;SDS011;10350;51.280;12.400;2023-07-16T11:26:54;2.80;;;2.63;;
20381;SDS011;10350;51.280;12.400;2023-07-16T11:29:24;2.60;;;2.40;;
20381;SDS011;10350;51.280;12.400;2023-07-16T11:31:51;5.88;;;2.55;;
20381;SDS011;10350;51.280;12.400;2023-07-16T11:34:19;3.20;;;2.75;;
20381;SDS011;10350;51.280;12.400;2023-07-16T11:36:45;2.75;;;2.55;;
20381;SDS011;10350;51.280;12.400;2023-07-16T11:39:11;3.03;;;2.72;;
20381;SDS011;10350;51.280;12.400;2023-07-16T11:41:37;4.18;;;2.83;;
20381;SDS011;10350;51.280;12.400;2023-07-16T11:44:03;5.30;;;3.00;;
20381;SDS011;10350;51.280;12.400;2023-07-16T11:46:32;2.60;;;2.40;;
20381;SDS011;10350;51.280;12.400;2023-07-16T11:48:59;3.07;;;2.87;;
20381;SDS011;10350;51.280;12.400;2023-07-16T11:51:25;2.63;;;2.53;;
20381;SDS011;10350;51.280;12.400;2023-07-16T11:53:51;2.72;;;2.53;;
20381;SDS011;10350;51.280;12.400;2023-07-16T11:56:17;2.55;;;2.35;;
20381;SDS011;10350;51.280;12.400;2023-07-16T11:58:43;2.90;;;2.70;;
20381;SDS011;10350;51.280;12.400;2023-07-16T12:01:09;3.00;;;2.65;;
20381;SDS011;10350;51.280;12.400;2023-07-16T12:03:35;2.53;;;2.38;;
20381;SDS011;10350;51.280;12.400;2023-07-16T12:06:01;3.80;;;2.50;;
20381;SDS011;10350;51.280;12.400;2023-07-16T12:08:27;2.30;;;2.20;;
20381;SDS011;10350;51.280;12.400;2023-07-16T12:10:54;3.72;;;3.10;;
20381;SDS011;10350;51.280;12.400;2023-07-16T12:13:20;2.97;;;2.70;;
20381;SDS011;10350;51.280;12.400;2023-07-16T12:15:46;2.20;;;2.10;;
20381;SDS011;10350;51.280;12.400;2023-07-16T12:18:12;4.07;;;3.00;;
20381;SDS011;10350;51.280;12.400;2023-07-16T12:20:38;2.25;;;2.15;;
20381;SDS011;10350;51.280;12.400;2023-07-16T12:23:05;4.22;;;2.83;;
20381;SDS011;10350;51.280;12.400;2023-07-16T12:25:31;2.35;;;2.25;;
20381;SDS011;10350;51.280;12.400;2023-07-16T12:27:57;3.42;;;2.55;;
20381;SDS011;10350;51.280;12.400;2023-07-16T12:30:23;3.50;;;2.92;;
20381;SDS011;10350;51.280;12.400;2023-07-16T12:32:49;2.60;;;2.40;;
20381;SDS011;10350;51.280;12.400;2023-07-16T12:35:15;2.67;;;2.47;;
20381;SDS011;10350;51.280;12.400;2023-07-16T12:37:41;2.85;;;2.58;;
20381;SDS011;10350;51.280;12.400;2023-07-16T12:40:07;2.63;;;2.42;;
20381;SDS011;10350;51.280;12.400;2023-07-16T12:42:33;2.47;;;2.28;;
20381;SDS011;10350;51.280;12.400;2023-07-16T12:45:00;2.90;;;2.70;;
20381;SDS011;10350;51.280;12.400;2023-07-16T12:47:26;2.77;;;2.57;;
20381;SDS011;10350;51.280;12.400;2023-07-16T12:49:52;2.97;;;2.60;;
20381;SDS011;10350;51.280;12.400;2023-07-16T12:52:18;2.85;;;2.63;;
20381;SDS011;10350;51.280;12.400;2023-07-16T12:54:44;5.78;;;2.83;;
20381;SDS011;10350;51.280;12.400;2023-07-16T12:57:11;5.97;;;2.30;;
20381;SDS011;10350;51.280;12.400;2023-07-16T12:59:37;4.07;;;2.60;;
20381;SDS011;10350;51.280;12.400;2023-07-16T13:02:03;7.40;;;3.25;;
20381;SDS011;10350;51.280;12.400;2023-07-16T13:04:29;2.60;;;2.47;;
20381;SDS011;10350;51.280;12.400;2023-07-16T13:06:55;2.97;;;2.78;;
20381;SDS011;10350;51.280;12.400;2023-07-16T13:09:21;2.60;;;2.33;;
20381;SDS011;10350;51.280;12.400;2023-07-16T13:11:48;2.95;;;2.25;;
20381;SDS011;10350;51.280;12.400;2023-07-16T13:14:14;5.65;;;3.08;;
20381;SDS011;10350;51.280;12.400;2023-07-16T13:16:40;2.47;;;2.33;;
20381;SDS011;10350;51.280;12.400;2023-07-16T13:19:06;4.72;;;2.80;;
20381;SDS011;10350;51.280;12.400;2023-07-16T13:21:32;2.75;;;2.55;;
20381;SDS011;10350;51.280;12.400;2023-07-16T13:23:58;2.75;;;2.40;;
20381;SDS011;10350;51.280;12.400;2023-07-16T13:26:24;2.30;;;2.13;;
20381;SDS011;10350;51.280;12.400;2023-07-16T13:28:50;3.00;;;2.80;;
20381;SDS011;10350;51.280;12.400;2023-07-16T13:31:17;3.47;;;3.17;;
20381;SDS011;10350;51.280;12.400;2023-07-16T13:33:43;4.35;;;2.75;;
20381;SDS011;10350;51.280;12.400;2023-07-16T13:36:09;2.60;;;2.50;;
20381;SDS011;10350;51.280;12.400;2023-07-16T13:38:35;3.00;;;2.80;;
20381;SDS011;10350;51.280;12.400;2023-07-16T13:41:01;2.90;;;2.70;;
20381;SDS011;10350;51.280;12.400;2023-07-16T13:43:27;2.80;;;2.60;;
20381;SDS011;10350;51.280;12.400;2023-07-16T13:45:53;3.38;;;2.90;;
20381;SDS011;10350;51.280;12.400;2023-07-16T13:48:19;8.75;;;3.17;;
20381;SDS011;10350;51.280;12.400;2023-07-16T13:50:46;6.82;;;2.55;;
20381;SDS011;10350;51.280;12.400;2023-07-16T13:53:12;3.30;;;3.00;;
20381;SDS011;10350;51.280;12.400;2023-07-16T13:55:38;2.95;;;2.58;;
20381;SDS011;10350;51.280;12.400;2023-07-16T13:58:04;3.83;;;2.70;;
20381;SDS011;10350;51.280;12.400;2023-07-16T14:00:30;3.35;;;3.05;;
20381;SDS011;10350;51.280;12.400;2023-07-16T14:02:56;2.90;;;2.70;;
20381;SDS011;10350;51.280;12.400;2023-07-16T14:05:22;2.85;;;2.60;;
20381;SDS011;10350;51.280;12.400;2023-07-16T14:07:48;3.83;;;3.13;;
20381;SDS011;10350;51.280;12.400;2023-07-16T14:10:16;3.17;;;2.70;;
20381;SDS011;10350;51.280;12.400;2023-07-16T14:12:42;4.80;;;4.03;;
20381;SDS011;10350;51.280;12.400;2023-07-16T14:15:08;5.30;;;2.78;;
20381;SDS011;10350;51.280;12.400;2023-07-16T14:17:34;4.32;;;3.10;;
20381;SDS011;10350;51.280;12.400;2023-07-16T14:20:00;3.28;;;2.65;;
20381;SDS011;10350;51.280;12.400;2023-07-16T14:22:26;3.67;;;2.85;;
20381;SDS011;10350;51.280;12.400;2023-07-16T14:24:52;3.40;;;3.10;;
20381;SDS011;10350;51.280;12.400;2023-07-16T14:27:18;3.03;;;2.80;;
20381;SDS011;10350;51.280;12.400;2023-07-16T14:29:45;2.42;;;2.33;;
20381;SDS011;10350;51.280;12.400;2023-07-16T14:32:11;2.53;;;2.28;;
20381;SDS011;10350;51.280;12.400;2023-07-16T14:34:38;3.47;;;3.17;;
20381;SDS011;10350;51.280;12.400;2023-07-16T14:37:04;3.22;;;2.95;;
20381;SDS011;10350;51.280;12.400;2023-07-16T14:39:30;5.65;;;3.15;;
20381;SDS011;10350;51.280;12.400;2023-07-16T14:41:56;3.20;;;2.90;;